createdAt,value
2023-04-29T00:01:45.365Z,48.45
2023-04-29T00:06:50.897Z,48.85
2023-04-29T00:11:55.228Z,49.20
2023-04-29T00:17:00.111Z,48.90
2023-04-29T00:22:06.127Z,49.39
2023-04-29T00:27:12.120Z,49.16
2023-04-29T00:32:16.622Z,49.44
2023-04-29T00:37:22.453Z,50.32
2023-04-29T00:42:27.413Z,50.11
2023-04-29T00:47:31.653Z,50.84
2023-04-29T00:52:39.565Z,51.20
2023-04-29T00:57:43.922Z,51.14
2023-04-29T01:02:49.593Z,51.14
2023-04-29T01:08:12.924Z,51.56
2023-04-29T01:13:25.912Z,52.64
2023-04-29T01:18:36.258Z,52.92
2023-04-29T01:23:41.772Z,54.16
2023-04-29T01:28:52.492Z,52.29
2023-04-29T01:34:07.506Z,53.38
2023-04-29T01:39:18.169Z,53.17
2023-04-29T01:44:30.415Z,54.25
2023-04-29T01:49:38.530Z,55.47
2023-04-29T01:54:44.656Z,55.46
2023-04-29T01:59:48.987Z,55.78
2023-04-29T02:05:13.080Z,55.68
2023-04-29T02:10:23.895Z,58.17
2023-04-29T02:15:36.807Z,57.63
2023-04-29T02:20:41.457Z,57.61
2023-04-29T02:25:47.171Z,58.27
2023-04-29T02:30:51.988Z,57.97
2023-04-29T02:35:56.201Z,59.38
2023-04-29T02:41:01.824Z,59.04
2023-04-29T02:46:06.116Z,59.24
2023-04-29T02:51:10.815Z,59.50
2023-04-29T02:56:16.598Z,59.97
2023-04-29T03:01:20.844Z,60.50
2023-04-29T03:06:25.304Z,59.69
2023-04-29T03:11:30.837Z,60.72
2023-04-29T03:16:35.119Z,61.20
2023-04-29T03:21:39.358Z,59.69
2023-04-29T03:26:45.541Z,58.93
2023-04-29T03:31:50.086Z,59.05
2023-04-29T03:36:54.871Z,59.57
2023-04-29T03:42:01.690Z,60.39
2023-04-29T03:47:06.887Z,61.25
2023-04-29T03:52:12.754Z,62.08
2023-04-29T03:57:18.946Z,60.96
2023-04-29T04:02:23.544Z,61.43
2023-04-29T04:07:28.362Z,61.88
2023-04-29T04:12:54.116Z,62.76
2023-04-29T04:17:58.531Z,64.03
2023-04-29T04:23:03.574Z,63.65
2023-04-29T04:28:09.724Z,65.27
2023-04-29T04:33:34.716Z,65.79
2023-04-29T04:38:39.729Z,66.56
2023-04-29T04:43:49.701Z,65.94
2023-04-29T04:49:09.430Z,66.27
2023-04-29T04:54:19.526Z,65.66
2023-04-29T04:59:28.735Z,66.55
2023-04-29T05:04:33.216Z,65.96
2023-04-29T05:09:37.525Z,66.25
2023-04-29T05:14:43.185Z,66.79
2023-04-29T05:19:47.615Z,67.91
2023-04-29T05:24:53.116Z,68.96
2023-04-29T05:30:00.374Z,69.40
2023-04-29T05:35:07.289Z,69.41
2023-04-29T05:40:13.238Z,69.23
2023-04-29T05:45:19.503Z,68.87
2023-04-29T05:50:23.646Z,70.19
2023-04-29T05:55:27.971Z,70.78
2023-04-29T06:00:33.880Z,71.30
2023-04-29T06:05:49.369Z,71.62
2023-04-29T06:11:10.578Z,73.34
2023-04-29T06:16:16.205Z,74.26
2023-04-29T06:21:20.559Z,75.21
2023-04-29T06:26:24.785Z,76.18
2023-04-29T06:31:30.643Z,76.78
2023-04-29T06:36:39.841Z,76.62
2023-04-29T06:42:09.144Z,75.44
2023-04-29T06:47:20.987Z,75.48
2023-04-29T06:52:32.273Z,75.37
2023-04-29T06:57:37.010Z,75.67
2023-04-29T07:02:43.505Z,75.38
2023-04-29T07:07:48.082Z,76.55
2023-04-29T07:12:52.501Z,76.43
2023-04-29T07:17:58.359Z,77.43
2023-04-29T07:23:03.076Z,79.01
2023-04-29T07:28:08.587Z,81.17
2023-04-29T07:33:14.325Z,80.42
2023-04-29T07:38:18.434Z,80.32
2023-04-29T07:43:23.349Z,81.35
2023-04-29T07:48:29.071Z,80.99
2023-04-29T07:53:33.720Z,79.22
2023-04-29T07:58:37.943Z,79.10
2023-04-29T08:03:43.825Z,76.11
2023-04-29T08:08:50.030Z,72.88
2023-04-29T08:13:58.055Z,69.12
2023-04-29T08:19:03.599Z,69.02
2023-04-29T08:24:08.342Z,66.24
2023-04-29T08:29:12.525Z,65.39
2023-04-29T08:34:18.102Z,62.20
2023-04-29T08:39:22.309Z,60.47
2023-04-29T08:44:28.104Z,56.58
2023-04-29T08:49:34.874Z,54.09
2023-04-29T08:54:39.077Z,52.99
2023-04-29T08:59:43.858Z,52.74
2023-04-29T09:04:59.542Z,49.55
2023-04-29T09:10:06.373Z,53.92
2023-04-29T09:15:11.646Z,55.68
2023-04-29T09:20:31.439Z,54.65
2023-04-29T09:25:36.643Z,54.04
2023-04-29T09:30:48.365Z,52.65
2023-04-29T09:35:54.334Z,58.22
2023-04-29T09:40:59.923Z,59.14
2023-04-29T09:46:06.739Z,60.69
2023-04-29T09:51:14.270Z,61.85
2023-04-29T09:56:20.305Z,63.61
2023-04-29T10:01:26.607Z,64.67
2023-04-29T10:06:33.553Z,66.10
2023-04-29T10:11:38.907Z,66.64
2023-04-29T10:23:52.346Z,65.87
2023-04-29T10:28:58.162Z,66.84
2023-04-29T10:34:02.306Z,67.51
2023-04-29T10:39:14.429Z,67.87
2023-04-29T10:44:20.220Z,67.82
2023-04-29T13:04:13.441Z,65.49
2023-04-29T13:09:19.096Z,62.62
2023-04-29T13:14:23.866Z,65.90
2023-04-29T13:25:52.169Z,65.36
2023-04-29T13:31:00.250Z,65.00
2023-04-29T13:59:52.382Z,64.71
2023-04-29T14:10:49.556Z,64.97
2023-04-29T14:15:56.946Z,66.68
2023-04-29T14:21:55.774Z,68.69
2023-04-29T14:33:28.100Z,71.13
2023-04-29T14:38:32.451Z,72.93
2023-04-29T14:49:22.464Z,89.50
2023-04-29T14:54:27.371Z,92.82
2023-04-29T14:59:32.344Z,96.24
2023-04-29T15:10:25.200Z,84.63
2023-04-29T15:15:29.492Z,78.08
2023-04-29T15:28:06.665Z,79.56
2023-04-29T15:33:11.011Z,77.18
2023-04-29T15:38:15.715Z,77.80
2023-04-29T15:43:22.860Z,77.49
2023-04-29T15:48:28.517Z,77.98
2023-04-29T15:53:32.666Z,78.06
2023-04-29T15:58:38.288Z,78.17
2023-04-29T16:03:42.748Z,78.37
2023-04-29T16:08:47.207Z,85.59
2023-04-29T16:13:52.986Z,99.91
2023-04-29T16:18:57.549Z,100.00
2023-04-29T16:24:01.753Z,100.00
2023-04-29T16:29:07.937Z,100.00
2023-04-29T16:34:12.904Z,100.00
2023-04-29T16:39:17.171Z,100.00
2023-04-29T16:44:22.935Z,100.00
2023-04-29T16:49:28.064Z,100.00
2023-04-29T16:54:32.868Z,100.00
2023-04-29T16:59:38.713Z,100.00
2023-04-29T17:04:43.668Z,100.00
2023-04-29T17:09:48.812Z,100.00
2023-04-29T17:14:54.683Z,100.00
2023-04-29T17:19:59.090Z,100.00
2023-04-29T17:25:03.935Z,100.00
2023-04-29T17:30:10.961Z,100.00
2023-04-29T17:35:15.354Z,100.00
2023-04-29T17:40:19.872Z,100.00
2023-04-29T17:45:25.529Z,100.00
2023-04-29T17:50:29.726Z,100.00
2023-04-29T17:55:34.202Z,100.00
2023-04-29T18:00:41.919Z,100.00
2023-04-29T18:05:47.602Z,100.00
2023-04-29T18:10:51.773Z,100.00
2023-04-29T18:15:57.544Z,100.00
2023-04-29T18:21:01.814Z,100.00
2023-04-29T18:26:06.378Z,100.00
2023-04-29T18:31:12.085Z,100.00
2023-04-29T18:36:16.938Z,100.00
2023-04-29T18:41:21.656Z,100.00
2023-04-29T18:46:29.790Z,100.00
2023-04-29T18:51:33.951Z,100.00
2023-04-29T18:56:40.168Z,100.00
2023-04-29T19:01:46.287Z,100.00
2023-04-29T19:06:50.804Z,100.00
2023-04-29T19:11:54.942Z,100.00
2023-04-29T19:17:00.701Z,100.00
2023-04-29T19:22:05.682Z,100.00
2023-04-29T19:27:10.002Z,100.00
2023-04-29T19:32:15.730Z,100.00
2023-04-29T19:37:19.956Z,100.00
2023-04-29T19:42:24.388Z,100.00
2023-04-29T19:47:29.993Z,100.00
2023-04-29T19:52:34.160Z,100.00
2023-04-29T19:57:39.078Z,100.00
2023-04-29T20:02:45.220Z,100.00
2023-04-29T20:07:49.995Z,100.00
2023-04-29T20:12:54.736Z,100.00
2023-04-29T20:18:00.396Z,100.00
2023-04-29T20:23:04.819Z,100.00
2023-04-29T20:28:10.378Z,100.00
2023-04-29T20:33:16.196Z,100.00
2023-04-29T20:38:20.533Z,100.00
2023-04-29T20:43:26.070Z,100.00
2023-04-29T20:48:31.710Z,100.00
2023-04-29T20:53:36.397Z,100.00
2023-04-29T20:58:40.561Z,100.00
2023-04-29T21:03:46.144Z,100.00
2023-04-29T21:08:50.508Z,100.00
2023-04-29T21:13:54.885Z,100.00
2023-04-29T21:19:00.729Z,100.00
2023-04-29T21:24:05.394Z,100.00
2023-04-29T21:29:09.795Z,100.00
2023-04-29T21:34:15.378Z,100.00
2023-04-29T21:39:19.653Z,100.00
2023-04-29T21:44:23.963Z,100.00
2023-04-29T21:49:29.637Z,100.00
2023-04-29T21:54:34.063Z,100.00
2023-04-29T21:59:38.210Z,100.00
2023-04-29T22:04:44.118Z,100.00
2023-04-29T22:09:49.956Z,100.00
2023-04-29T22:14:54.333Z,100.00
2023-04-29T22:19:59.840Z,100.00
2023-04-29T22:25:04.839Z,100.00
2023-04-29T22:30:10.358Z,100.00
2023-04-29T22:35:16.210Z,100.00
2023-04-29T22:40:20.781Z,100.00
2023-04-29T22:45:24.946Z,100.00
2023-04-29T22:50:30.896Z,100.00
2023-04-29T22:55:34.928Z,100.00
2023-04-29T23:00:39.037Z,100.00
2023-04-29T23:05:44.577Z,100.00
2023-04-29T23:10:49.890Z,100.00
2023-04-29T23:15:57.708Z,100.00
2023-04-29T23:21:03.808Z,100.00
2023-04-29T23:26:08.269Z,100.00
2023-04-29T23:31:12.975Z,100.00
2023-04-29T23:36:18.674Z,100.00
2023-04-29T23:41:22.946Z,100.00
2023-04-29T23:46:27.272Z,100.00
2023-04-29T23:51:33.359Z,100.00
2023-04-29T23:56:37.788Z,100.00
